createdAt,value
2023-05-19T00:00:53.450Z,21.5606
2023-05-19T00:01:55.244Z,21.5462
2023-05-19T00:02:57.081Z,21.5285
2023-05-19T00:03:58.616Z,21.5255
2023-05-19T00:05:00.394Z,21.5263
2023-05-19T00:06:02.161Z,21.5245
2023-05-19T00:07:03.814Z,21.5317
2023-05-19T00:08:05.533Z,21.5367
2023-05-19T00:09:07.275Z,21.5284
2023-05-19T00:10:09.004Z,21.5351
2023-05-19T00:11:10.729Z,21.5512
2023-05-19T00:12:12.420Z,21.5587
2023-05-19T00:13:14.181Z,21.5555
2023-05-19T00:14:15.871Z,21.5500
2023-05-19T00:15:17.618Z,21.5602
2023-05-19T00:16:19.429Z,21.5618
2023-05-19T00:17:21.048Z,21.5610
2023-05-19T00:18:22.861Z,21.5604
2023-05-19T00:19:25.026Z,21.5597
2023-05-19T00:20:26.239Z,21.5621
2023-05-19T00:21:27.974Z,21.5603
2023-05-19T00:22:29.685Z,21.5723
2023-05-19T00:23:31.417Z,21.5821
2023-05-19T00:24:33.152Z,21.5663
2023-05-19T00:25:34.873Z,21.5528
2023-05-19T00:26:36.583Z,21.5466
2023-05-19T00:27:38.349Z,21.5456
2023-05-19T00:28:40.093Z,21.5614
2023-05-19T00:29:41.780Z,21.5647
2023-05-19T00:30:43.518Z,21.5748
2023-05-19T00:31:45.292Z,21.5901
2023-05-19T00:32:46.970Z,21.5895
2023-05-19T00:33:48.705Z,21.5886
2023-05-19T00:34:50.413Z,21.5908
2023-05-19T00:35:52.143Z,21.5749
2023-05-19T00:36:53.849Z,21.5702
2023-05-19T00:37:55.613Z,21.5706
2023-05-19T00:38:57.320Z,21.5633
2023-05-19T00:39:59.043Z,21.5643
2023-05-19T00:41:00.770Z,21.5695
2023-05-19T00:42:02.475Z,21.5709
2023-05-19T00:43:04.204Z,21.5694
2023-05-19T00:44:05.964Z,21.5625
2023-05-19T00:45:07.684Z,21.5518
2023-05-19T00:46:09.412Z,21.5541
2023-05-19T00:47:11.142Z,21.5615
2023-05-19T00:48:12.853Z,21.5778
2023-05-19T00:49:14.570Z,21.5735
2023-05-19T00:50:16.312Z,21.5540
2023-05-19T00:51:18.033Z,21.5396
2023-05-19T00:52:19.740Z,21.5280
2023-05-19T00:53:21.480Z,21.5348
2023-05-19T00:54:23.200Z,21.5393
2023-05-19T00:55:24.930Z,21.5304
2023-05-19T00:56:26.663Z,21.5327
2023-05-19T00:57:28.370Z,21.5494
2023-05-19T00:58:30.119Z,21.5399
2023-05-19T00:59:31.851Z,21.5270
2023-05-19T01:00:33.870Z,21.5248
2023-05-19T01:01:35.381Z,21.5356
2023-05-19T01:02:37.060Z,21.5505
2023-05-19T01:03:38.793Z,21.5567
2023-05-19T01:04:40.470Z,21.5606
2023-05-19T01:05:42.200Z,21.5528
2023-05-19T01:06:43.917Z,21.5494
2023-05-19T01:07:45.650Z,21.5717
2023-05-19T01:08:47.361Z,21.5728
2023-05-19T01:09:49.101Z,21.5660
2023-05-19T01:10:50.825Z,21.5800
2023-05-19T01:11:52.545Z,21.5879
2023-05-19T01:12:54.259Z,21.5999
2023-05-19T01:13:56.015Z,21.6032
2023-05-19T01:14:57.746Z,21.6135
2023-05-19T01:15:59.471Z,21.6121
2023-05-19T01:17:01.189Z,21.6154
2023-05-19T01:18:02.952Z,21.6082
2023-05-19T01:19:04.647Z,21.6146
2023-05-19T01:20:06.427Z,21.6112
2023-05-19T01:21:08.097Z,21.5992
2023-05-19T01:22:09.798Z,21.5873
2023-05-19T01:23:11.528Z,21.5873
2023-05-19T01:24:13.274Z,21.5770
2023-05-19T01:25:15.016Z,21.5829
2023-05-19T01:26:16.724Z,21.5953
2023-05-19T01:27:18.430Z,21.6029
2023-05-19T01:28:20.168Z,21.5941
2023-05-19T01:29:21.873Z,21.5936
2023-05-19T01:30:23.657Z,21.5993
2023-05-19T01:31:25.358Z,21.5952
2023-05-19T01:32:27.135Z,21.5932
2023-05-19T01:33:28.788Z,21.5954
2023-05-19T01:34:30.512Z,21.5672
2023-05-19T01:35:32.226Z,21.5515
2023-05-19T01:36:33.963Z,21.5630
2023-05-19T01:37:35.668Z,21.5820
2023-05-19T01:38:37.423Z,21.6056
2023-05-19T01:39:39.111Z,21.6082
2023-05-19T01:40:40.880Z,21.5988
2023-05-19T01:41:42.602Z,21.5871
2023-05-19T01:42:44.296Z,21.5742
2023-05-19T01:43:46.049Z,21.5643
2023-05-19T01:44:47.767Z,21.5727
2023-05-19T01:45:49.525Z,21.5713
2023-05-19T01:46:51.198Z,21.5736
2023-05-19T01:47:52.970Z,21.5715
2023-05-19T01:48:54.677Z,21.5666
2023-05-19T01:49:56.384Z,21.5576
2023-05-19T01:50:58.145Z,21.5684
2023-05-19T01:51:59.830Z,21.5666
2023-05-19T01:53:01.564Z,21.5836
2023-05-19T01:54:03.317Z,21.6018
2023-05-19T01:55:05.026Z,21.6107
2023-05-19T01:56:06.897Z,21.6258
2023-05-19T01:57:08.490Z,21.6139
2023-05-19T01:58:10.240Z,21.6169
2023-05-19T01:59:11.924Z,21.6302
2023-05-19T02:00:13.671Z,21.6269
2023-05-19T02:01:15.410Z,21.6027
2023-05-19T02:02:17.121Z,21.6024
2023-05-19T02:03:18.820Z,21.6196
2023-05-19T02:04:20.590Z,21.6147
2023-05-19T02:05:22.292Z,21.6071
2023-05-19T02:06:24.048Z,21.5953
2023-05-19T02:07:25.733Z,21.5913
2023-05-19T02:08:27.474Z,21.5960
2023-05-19T02:09:29.189Z,21.5902
2023-05-19T02:10:31.096Z,21.5649
2023-05-19T02:11:32.671Z,21.5585
2023-05-19T02:12:34.350Z,21.5753
2023-05-19T02:13:36.107Z,21.5698
2023-05-19T02:14:37.798Z,21.5600
2023-05-19T02:15:39.587Z,21.5421
2023-05-19T02:16:41.262Z,21.5293
2023-05-19T02:17:42.989Z,21.5116
2023-05-19T02:18:44.710Z,21.5136
2023-05-19T02:19:46.425Z,21.5247
2023-05-19T02:20:48.161Z,21.5300
2023-05-19T02:21:49.899Z,21.5323
2023-05-19T02:22:51.592Z,21.5540
2023-05-19T02:23:53.334Z,21.5835
2023-05-19T02:24:55.034Z,21.6064
2023-05-19T02:25:56.766Z,21.5897
2023-05-19T02:26:58.502Z,21.5550
2023-05-19T02:28:00.213Z,21.5533
2023-05-19T02:29:01.975Z,21.5662
2023-05-19T02:30:03.663Z,21.5715
2023-05-19T02:31:05.405Z,21.5767
2023-05-19T02:32:07.185Z,21.5665
2023-05-19T02:33:08.900Z,21.5643
2023-05-19T02:34:10.564Z,21.5581
2023-05-19T02:35:12.314Z,21.5548
2023-05-19T02:36:14.020Z,21.5599
2023-05-19T02:37:15.782Z,21.5803
2023-05-19T02:38:17.483Z,21.5869
2023-05-19T02:39:19.203Z,21.5947
2023-05-19T02:40:20.930Z,21.5917
2023-05-19T02:41:22.655Z,21.5695
2023-05-19T02:42:24.403Z,21.5495
2023-05-19T02:43:26.102Z,21.5530
2023-05-19T02:44:27.810Z,21.5565
2023-05-19T02:45:29.535Z,21.5592
2023-05-19T02:46:31.324Z,21.5540
2023-05-19T02:47:34.717Z,21.5640
2023-05-19T02:48:34.707Z,21.5579
2023-05-19T02:49:36.487Z,21.5301
2023-05-19T02:50:38.174Z,21.5040
2023-05-19T02:51:39.907Z,21.4958
2023-05-19T02:52:41.610Z,21.5161
2023-05-19T02:53:43.338Z,21.5450
2023-05-19T02:54:45.092Z,21.5445
2023-05-19T02:55:46.785Z,21.5419
2023-05-19T02:56:48.506Z,21.5627
2023-05-19T02:57:50.252Z,21.5696
2023-05-19T02:58:51.958Z,21.5790
2023-05-19T02:59:53.680Z,21.5697
2023-05-19T03:00:55.430Z,21.5792
2023-05-19T03:01:57.188Z,21.5879
2023-05-19T03:02:58.905Z,21.5965
2023-05-19T03:04:00.729Z,21.5964
2023-05-19T03:05:02.319Z,21.5852
2023-05-19T03:06:04.020Z,21.5784
2023-05-19T03:07:05.748Z,21.5365
2023-05-19T03:08:07.495Z,21.5188
2023-05-19T03:09:09.191Z,21.5374
2023-05-19T03:10:10.912Z,21.5486
2023-05-19T03:11:12.652Z,21.5389
2023-05-19T03:12:14.359Z,21.5186
2023-05-19T03:13:16.111Z,21.5228
2023-05-19T03:14:17.821Z,21.5327
2023-05-19T03:15:19.522Z,21.5459
2023-05-19T03:16:21.331Z,21.5813
2023-05-19T03:17:23.062Z,21.5908
2023-05-19T03:18:24.838Z,21.5765
2023-05-19T03:19:26.662Z,21.5648
2023-05-19T03:20:28.145Z,21.5486
2023-05-19T03:21:29.872Z,21.5584
2023-05-19T03:22:31.622Z,21.5697
2023-05-19T03:23:33.345Z,21.5803
2023-05-19T03:24:35.041Z,21.5873
2023-05-19T03:25:36.795Z,21.5935
2023-05-19T03:26:38.496Z,21.6007
2023-05-19T03:27:40.244Z,21.5878
2023-05-19T03:28:41.972Z,21.5667
2023-05-19T03:29:43.688Z,21.5596
2023-05-19T03:30:45.405Z,21.5613
2023-05-19T03:31:47.153Z,21.5792
2023-05-19T03:32:48.985Z,21.5736
2023-05-19T03:33:50.598Z,21.5678
2023-05-19T03:34:52.318Z,21.5572
2023-05-19T03:35:54.032Z,21.5388
2023-05-19T03:36:55.781Z,21.5539
2023-05-19T03:37:57.473Z,21.5724
2023-05-19T03:38:59.196Z,21.5751
2023-05-19T03:40:00.945Z,21.5755
2023-05-19T03:41:02.673Z,21.5908
2023-05-19T03:42:04.399Z,21.5910
2023-05-19T03:43:06.121Z,21.5739
2023-05-19T03:44:07.855Z,21.5783
2023-05-19T03:45:09.561Z,21.5793
2023-05-19T03:46:11.356Z,21.5768
2023-05-19T03:47:13.032Z,21.5636
2023-05-19T03:48:14.749Z,21.5593
2023-05-19T03:49:16.494Z,21.5672
2023-05-19T03:50:18.207Z,21.5687
2023-05-19T03:51:19.915Z,21.5790
2023-05-19T03:52:21.631Z,21.5849
2023-05-19T03:53:23.490Z,21.5859
2023-05-19T03:54:25.217Z,21.5904
2023-05-19T03:55:26.913Z,21.5964
2023-05-19T03:56:28.670Z,21.6053
2023-05-19T03:57:30.380Z,21.6011
2023-05-19T03:58:32.077Z,21.5985
2023-05-19T03:59:33.831Z,21.5962
2023-05-19T04:00:35.773Z,21.6042
2023-05-19T04:01:37.296Z,21.6210
2023-05-19T04:02:39.098Z,21.6226
2023-05-19T04:03:40.809Z,21.6254
2023-05-19T04:04:42.512Z,21.6355
2023-05-19T04:05:44.216Z,21.6394
2023-05-19T04:06:45.930Z,21.5992
2023-05-19T04:07:47.626Z,21.5818
2023-05-19T04:08:49.357Z,21.5873
2023-05-19T04:09:51.088Z,21.6068
2023-05-19T04:10:52.833Z,21.6110
2023-05-19T04:11:54.569Z,21.5906
2023-05-19T04:12:56.264Z,21.5916
2023-05-19T04:13:58.014Z,21.5860
2023-05-19T04:14:59.758Z,21.5791
2023-05-19T04:16:01.481Z,21.5749
2023-05-19T04:17:03.198Z,21.5852
2023-05-19T04:18:04.944Z,21.5780
2023-05-19T04:19:06.719Z,21.5695
2023-05-19T04:20:08.371Z,21.5757
2023-05-19T04:21:10.113Z,21.5816
2023-05-19T04:22:11.810Z,21.5887
2023-05-19T04:23:13.548Z,21.5997
2023-05-19T04:24:15.263Z,21.5953
2023-05-19T04:25:17.058Z,21.5844
2023-05-19T04:26:18.719Z,21.5771
2023-05-19T04:27:20.467Z,21.5697
2023-05-19T04:28:22.184Z,21.5723
2023-05-19T04:29:23.917Z,21.5831
2023-05-19T04:30:25.634Z,21.5847
2023-05-19T04:31:27.353Z,21.5850
2023-05-19T04:32:29.123Z,21.5874
2023-05-19T04:33:30.822Z,21.5985
2023-05-19T04:34:32.559Z,21.5886
2023-05-19T04:35:34.292Z,21.5849
2023-05-19T04:36:35.973Z,21.5861
2023-05-19T04:37:37.694Z,21.5908
2023-05-19T04:38:39.427Z,21.6110
2023-05-19T04:39:41.180Z,21.6096
2023-05-19T04:40:42.911Z,21.6012
2023-05-19T04:41:44.623Z,21.5858
2023-05-19T04:42:46.327Z,21.5896
2023-05-19T04:43:48.080Z,21.5867
2023-05-19T04:44:49.782Z,21.5804
2023-05-19T04:45:51.553Z,21.5730
2023-05-19T04:46:53.306Z,21.5698
2023-05-19T04:47:55.009Z,21.5791
2023-05-19T04:48:56.725Z,21.5940
2023-05-19T04:49:58.411Z,21.5857
2023-05-19T04:51:00.154Z,21.5901
2023-05-19T04:52:01.868Z,21.5902
2023-05-19T04:53:03.622Z,21.5899
2023-05-19T04:54:05.338Z,21.6023
2023-05-19T04:55:07.049Z,21.6122
2023-05-19T04:56:08.783Z,21.6200
2023-05-19T04:57:10.520Z,21.6261
2023-05-19T04:58:12.253Z,21.6039
2023-05-19T04:59:13.972Z,21.5898
2023-05-19T05:00:15.699Z,21.5723
2023-05-19T05:01:17.444Z,21.5791
2023-05-19T05:02:19.224Z,21.5863
2023-05-19T05:03:20.972Z,21.6079
2023-05-19T05:04:22.657Z,21.6233
2023-05-19T05:05:24.337Z,21.6216
2023-05-19T05:06:26.037Z,21.6140
2023-05-19T05:07:28.548Z,21.6110
2023-05-19T05:08:29.483Z,21.6008
2023-05-19T05:09:31.224Z,21.5966
2023-05-19T05:10:33.108Z,21.6097
2023-05-19T05:11:34.682Z,21.6183
2023-05-19T05:12:36.410Z,21.6137
2023-05-19T05:13:38.130Z,21.6095
2023-05-19T05:14:39.828Z,21.6022
2023-05-19T05:15:41.555Z,21.6061
2023-05-19T05:16:43.491Z,21.6059
2023-05-19T05:17:45.056Z,21.6133
2023-05-19T05:18:46.770Z,21.6111
2023-05-19T05:19:48.487Z,21.6082
2023-05-19T05:20:50.214Z,21.6216
2023-05-19T05:21:52.328Z,21.6426
2023-05-19T05:22:53.646Z,21.6628
2023-05-19T05:23:55.373Z,21.6686
2023-05-19T05:24:57.113Z,21.6681
2023-05-19T05:25:58.841Z,21.6714
2023-05-19T05:27:00.602Z,21.6844
2023-05-19T05:28:02.270Z,21.6847
2023-05-19T05:29:03.998Z,21.6849
2023-05-19T05:30:05.714Z,21.6898
2023-05-19T05:31:07.518Z,21.6865
2023-05-19T05:32:09.256Z,21.6770
2023-05-19T05:33:10.955Z,21.6772
2023-05-19T05:34:12.619Z,21.6628
2023-05-19T05:35:14.350Z,21.6566
2023-05-19T05:36:16.096Z,21.6602
2023-05-19T05:37:17.835Z,21.6766
2023-05-19T05:38:19.547Z,21.6965
2023-05-19T05:39:21.266Z,21.7074
2023-05-19T05:40:22.978Z,21.7087
2023-05-19T05:41:24.725Z,21.7025
2023-05-19T05:42:28.932Z,21.7059
2023-05-19T05:43:28.172Z,21.7082
2023-05-19T05:44:29.894Z,21.7012
2023-05-19T05:45:31.913Z,21.7095
2023-05-19T05:46:33.478Z,21.7072
2023-05-19T05:47:35.096Z,21.7043
2023-05-19T05:48:36.793Z,21.7058
2023-05-19T05:49:38.536Z,21.6909
2023-05-19T05:50:40.240Z,21.6992
2023-05-19T05:51:46.417Z,21.7102
2023-05-19T05:52:43.706Z,21.6739
2023-05-19T05:53:45.441Z,21.6444
2023-05-19T05:54:47.144Z,21.6577
2023-05-19T05:55:48.867Z,21.6579
2023-05-19T05:56:50.600Z,21.6534
2023-05-19T05:57:52.350Z,21.6298
2023-05-19T05:58:54.070Z,21.6295
2023-05-19T05:59:55.789Z,21.6435
2023-05-19T06:00:57.500Z,21.6519
2023-05-19T06:01:59.228Z,21.6558
2023-05-19T06:03:01.134Z,21.6525
2023-05-19T06:04:02.706Z,21.6581
2023-05-19T06:05:04.461Z,21.6537
2023-05-19T06:06:06.148Z,21.6652
2023-05-19T06:07:07.889Z,21.6623
2023-05-19T06:08:09.630Z,21.6446
2023-05-19T06:09:11.303Z,21.6273
2023-05-19T06:10:13.051Z,21.6231
2023-05-19T06:11:14.803Z,21.6270
2023-05-19T06:12:16.515Z,21.6442
2023-05-19T06:13:18.261Z,21.6612
2023-05-19T06:14:19.969Z,21.6560
2023-05-19T06:15:21.670Z,21.6436
2023-05-19T06:16:23.444Z,21.6345
2023-05-19T06:17:25.257Z,21.6147
2023-05-19T06:18:26.903Z,21.6032
2023-05-19T06:19:28.707Z,21.6091
2023-05-19T06:20:30.474Z,21.6161
2023-05-19T06:21:32.021Z,21.6321
2023-05-19T06:22:33.769Z,21.6293
2023-05-19T06:23:35.505Z,21.6197
2023-05-19T06:24:39.356Z,21.6137
2023-05-19T06:25:38.948Z,21.6049
2023-05-19T06:26:40.671Z,21.5805
2023-05-19T06:27:42.382Z,21.5865
2023-05-19T06:28:44.111Z,21.6122
2023-05-19T06:29:45.827Z,21.6222
2023-05-19T06:30:47.573Z,21.6047
2023-05-19T06:31:49.398Z,21.5856
2023-05-19T06:32:51.111Z,21.5863
2023-05-19T06:33:52.761Z,21.5821
2023-05-19T06:34:54.485Z,21.6009
2023-05-19T06:35:56.189Z,21.6190
2023-05-19T06:36:57.939Z,21.6156
2023-05-19T06:37:59.671Z,21.6011
2023-05-19T06:39:02.677Z,21.5994
2023-05-19T06:40:03.103Z,21.5983
2023-05-19T06:41:04.832Z,21.6038
2023-05-19T06:42:06.587Z,21.5950
2023-05-19T06:43:08.304Z,21.5801
2023-05-19T06:44:10.069Z,21.5702
2023-05-19T06:45:11.764Z,21.5895
2023-05-19T06:46:13.556Z,21.5992
2023-05-19T06:47:15.243Z,21.6020
2023-05-19T06:48:17.015Z,21.6139
2023-05-19T06:49:18.650Z,21.6078
2023-05-19T06:50:20.404Z,21.5939
2023-05-19T06:51:22.124Z,21.6094
2023-05-19T06:52:23.883Z,21.6286
2023-05-19T06:53:25.565Z,21.6476
2023-05-19T06:54:27.305Z,21.6414
2023-05-19T06:55:29.027Z,21.6436
2023-05-19T06:56:30.780Z,21.6382
2023-05-19T06:57:32.492Z,21.6305
2023-05-19T06:58:34.201Z,21.6247
2023-05-19T06:59:35.936Z,21.6207
2023-05-19T07:00:37.706Z,21.6202
2023-05-19T07:01:39.413Z,21.6166
2023-05-19T07:02:41.187Z,21.6223
2023-05-19T07:03:42.895Z,21.6246
2023-05-19T07:04:44.605Z,21.6272
2023-05-19T07:05:47.167Z,21.5970
2023-05-19T07:06:48.028Z,21.5803
2023-05-19T07:07:49.767Z,21.5881
2023-05-19T07:08:51.485Z,21.5957
2023-05-19T07:09:53.236Z,21.6071
2023-05-19T07:10:54.957Z,21.6177
2023-05-19T07:11:56.685Z,21.6237
2023-05-19T07:12:58.398Z,21.6230
2023-05-19T07:14:00.173Z,21.6309
2023-05-19T07:15:02.037Z,21.6121
2023-05-19T07:16:03.625Z,21.5967
2023-05-19T07:17:05.325Z,21.5984
2023-05-19T07:18:07.075Z,21.5859
2023-05-19T07:19:08.822Z,21.6004
2023-05-19T07:20:10.540Z,21.6163
2023-05-19T07:21:12.215Z,21.6191
2023-05-19T07:22:13.950Z,21.6063
2023-05-19T07:23:17.393Z,21.5800
2023-05-19T07:24:17.429Z,21.5815
2023-05-19T07:25:19.146Z,21.5752
2023-05-19T07:26:20.894Z,21.5904
2023-05-19T07:27:22.618Z,21.6114
2023-05-19T07:28:24.316Z,21.6345
2023-05-19T07:29:26.070Z,21.6521
2023-05-19T07:30:27.811Z,21.6522
2023-05-19T07:31:29.574Z,21.6495
2023-05-19T07:32:31.298Z,21.6478
2023-05-19T07:33:32.965Z,21.6469
2023-05-19T07:34:34.689Z,21.6430
2023-05-19T07:35:36.441Z,21.6548
2023-05-19T07:36:38.158Z,21.6754
2023-05-19T07:37:39.892Z,21.6834
2023-05-19T07:38:41.663Z,21.6996
2023-05-19T07:39:43.326Z,21.6994
2023-05-19T07:40:45.059Z,21.6962
2023-05-19T07:41:46.783Z,21.6960
2023-05-19T07:42:48.505Z,21.6920
2023-05-19T07:43:50.262Z,21.6790
2023-05-19T07:44:51.970Z,21.6714
2023-05-19T07:45:53.781Z,21.6870
2023-05-19T07:46:55.444Z,21.7129
2023-05-19T07:47:57.220Z,21.7305
2023-05-19T07:48:58.926Z,21.7448
2023-05-19T07:50:00.612Z,21.7529
2023-05-19T07:51:02.387Z,21.7587
2023-05-19T07:52:04.069Z,21.7663
2023-05-19T07:53:05.806Z,21.7601
2023-05-19T07:54:07.529Z,21.7481
2023-05-19T07:55:09.265Z,21.7335
2023-05-19T07:56:11.115Z,21.7320
2023-05-19T07:57:12.790Z,21.7451
2023-05-19T07:58:14.504Z,21.7637
2023-05-19T07:59:16.265Z,21.7637
2023-05-19T08:00:17.981Z,21.7720
2023-05-19T08:01:19.846Z,21.7739
2023-05-19T08:02:21.458Z,21.7763
2023-05-19T08:03:23.295Z,21.7638
2023-05-19T08:04:24.897Z,21.7620
2023-05-19T08:05:26.643Z,21.7411
2023-05-19T08:06:28.363Z,21.7258
2023-05-19T08:07:30.048Z,21.7191
2023-05-19T08:08:31.797Z,21.7219
2023-05-19T08:09:33.531Z,21.7291
2023-05-19T08:10:35.400Z,21.7343
2023-05-19T08:11:36.982Z,21.7317
2023-05-19T08:12:38.694Z,21.7120
2023-05-19T08:13:40.406Z,21.7192
2023-05-19T08:14:42.131Z,21.7104
2023-05-19T08:15:43.892Z,21.7067
2023-05-19T08:16:45.607Z,21.7000
2023-05-19T08:17:47.367Z,21.7042
2023-05-19T08:18:49.098Z,21.6982
2023-05-19T08:19:50.790Z,21.7107
2023-05-19T08:20:52.517Z,21.6998
2023-05-19T08:21:54.265Z,21.7108
2023-05-19T08:22:55.978Z,21.7133
2023-05-19T08:23:57.696Z,21.6873
2023-05-19T08:24:59.429Z,21.6841
2023-05-19T08:26:01.156Z,21.6804
2023-05-19T08:27:02.896Z,21.6893
2023-05-19T08:28:04.603Z,21.6830
2023-05-19T08:29:06.318Z,21.6563
2023-05-19T08:30:08.074Z,21.6324
2023-05-19T08:31:09.845Z,21.6124
2023-05-19T08:32:13.185Z,21.6011
2023-05-19T08:33:13.255Z,21.5918
2023-05-19T08:34:14.971Z,21.5795
2023-05-19T08:35:16.671Z,21.5878
2023-05-19T08:36:18.398Z,21.5955
2023-05-19T08:37:20.157Z,21.6008
2023-05-19T08:38:21.873Z,21.5778
2023-05-19T08:39:23.581Z,21.6048
2023-05-19T08:40:25.322Z,21.6079
2023-05-19T08:41:27.024Z,21.6139
2023-05-19T08:42:28.802Z,21.6443
2023-05-19T08:43:30.497Z,21.6748
2023-05-19T08:44:32.221Z,21.6766
2023-05-19T08:45:34.124Z,21.6904
2023-05-19T08:46:35.833Z,21.7111
2023-05-19T08:47:37.433Z,21.7331
2023-05-19T08:48:39.094Z,21.7456
2023-05-19T08:49:40.842Z,21.7445
2023-05-19T08:50:42.559Z,21.7377
2023-05-19T08:51:44.302Z,21.7270
2023-05-19T08:52:49.539Z,21.7293
2023-05-19T08:53:47.742Z,21.7174
2023-05-19T08:54:49.461Z,21.7199
2023-05-19T08:55:51.192Z,21.7430
2023-05-19T08:56:52.888Z,21.7491
2023-05-19T08:57:54.642Z,21.7277
2023-05-19T08:58:56.364Z,21.7290
2023-05-19T08:59:58.076Z,21.7334
2023-05-19T09:00:59.876Z,21.7316
2023-05-19T09:02:01.513Z,21.7516
2023-05-19T09:04:05.023Z,21.7052
2023-05-19T09:05:06.715Z,21.6952
2023-05-19T09:06:08.557Z,21.7206
2023-05-19T09:07:10.135Z,21.7454
2023-05-19T09:08:11.870Z,21.7526
2023-05-19T09:09:13.620Z,21.7603
2023-05-19T09:10:15.335Z,21.7603
2023-05-19T09:11:17.039Z,21.7604
2023-05-19T09:12:18.781Z,21.7655
2023-05-19T09:13:20.519Z,21.7719
2023-05-19T09:14:22.234Z,21.7724
2023-05-19T09:15:23.945Z,21.7743
2023-05-19T09:16:27.811Z,21.7615
2023-05-19T09:17:27.412Z,21.7546
2023-05-19T09:18:29.189Z,21.7468
2023-05-19T09:19:30.989Z,21.7420
2023-05-19T09:20:32.586Z,21.7440
2023-05-19T09:21:34.302Z,21.7556
2023-05-19T09:22:36.048Z,21.7579
2023-05-19T09:23:37.785Z,21.7643
2023-05-19T09:24:39.481Z,21.7688
2023-05-19T09:25:41.230Z,21.7497
2023-05-19T09:26:42.974Z,21.7275
2023-05-19T09:27:44.691Z,21.7213
2023-05-19T09:28:46.402Z,21.7165
2023-05-19T09:29:48.119Z,21.7265
2023-05-19T09:30:49.849Z,21.7411
2023-05-19T09:31:51.788Z,21.7593
2023-05-19T09:32:53.380Z,21.7796
2023-05-19T09:33:55.091Z,21.7805
2023-05-19T09:34:56.753Z,21.7747
2023-05-19T09:35:58.501Z,21.7562
2023-05-19T09:37:00.230Z,21.7628
2023-05-19T09:38:01.986Z,21.7689
2023-05-19T09:39:03.701Z,21.7686
2023-05-19T09:40:05.399Z,21.7640
2023-05-19T09:41:07.188Z,21.7420
2023-05-19T09:42:08.853Z,21.7252
2023-05-19T09:43:10.584Z,21.7422
2023-05-19T09:44:12.323Z,21.7613
2023-05-19T09:45:14.069Z,21.7748
2023-05-19T09:46:15.838Z,21.7976
2023-05-19T09:47:17.505Z,21.8154
2023-05-19T09:48:19.217Z,21.8051
2023-05-19T09:49:20.992Z,21.7809
2023-05-19T09:50:22.691Z,21.7666
2023-05-19T09:51:24.422Z,21.7698
2023-05-19T09:52:26.154Z,21.7630
2023-05-19T09:53:27.865Z,21.7734
2023-05-19T09:54:29.722Z,21.7774
2023-05-19T09:55:31.449Z,21.7794
2023-05-19T09:56:33.061Z,21.7795
2023-05-19T09:57:34.801Z,21.7751
2023-05-19T09:58:36.771Z,21.7786
2023-05-19T09:59:38.264Z,21.7795
2023-05-19T10:00:39.986Z,21.7925
2023-05-19T10:01:41.722Z,21.8026
2023-05-19T10:02:43.435Z,21.8049
2023-05-19T10:03:45.164Z,21.8031
2023-05-19T10:04:47.327Z,21.7755
2023-05-19T10:05:48.643Z,21.7281
2023-05-19T10:06:50.329Z,21.7340
2023-05-19T10:07:52.060Z,21.7492
2023-05-19T10:08:53.789Z,21.7615
2023-05-19T10:09:56.604Z,21.7673
2023-05-19T10:10:57.264Z,21.7441
2023-05-19T10:11:59.004Z,21.7521
2023-05-19T10:13:00.694Z,21.7676
2023-05-19T10:14:02.424Z,21.7821
2023-05-19T10:15:04.183Z,21.7909
2023-05-19T10:16:05.953Z,21.7992
2023-05-19T10:17:07.765Z,21.7970
2023-05-19T10:18:09.389Z,21.8019
2023-05-19T10:19:11.100Z,21.7967
2023-05-19T10:20:12.844Z,21.7972
2023-05-19T10:21:14.506Z,21.8143
2023-05-19T10:22:16.230Z,21.8158
2023-05-19T10:23:17.989Z,21.7916
2023-05-19T10:24:19.702Z,21.7842
2023-05-19T10:25:21.454Z,21.7866
2023-05-19T10:26:23.135Z,21.7888
2023-05-19T10:27:24.874Z,21.7563
2023-05-19T10:28:26.642Z,21.7382
2023-05-19T10:29:28.383Z,21.7447
2023-05-19T10:30:30.092Z,21.7616
2023-05-19T10:31:31.860Z,21.7583
2023-05-19T10:32:33.622Z,21.7461
2023-05-19T10:33:35.257Z,21.7723
2023-05-19T10:34:36.968Z,21.7825
2023-05-19T10:35:38.917Z,21.7772
2023-05-19T10:36:40.406Z,21.7745
2023-05-19T10:37:42.156Z,21.7954
2023-05-19T10:38:43.877Z,21.7974
2023-05-19T10:39:45.596Z,21.7979
2023-05-19T10:40:47.334Z,21.7853
2023-05-19T10:41:49.038Z,21.7891
2023-05-19T10:42:50.778Z,21.8075
2023-05-19T10:43:52.501Z,21.8248
2023-05-19T10:44:54.229Z,21.8379
2023-05-19T10:45:55.936Z,21.8364
2023-05-19T10:46:57.714Z,21.8306
2023-05-19T10:47:59.495Z,21.8221
2023-05-19T10:49:01.137Z,21.8117
2023-05-19T10:50:02.872Z,21.8061
2023-05-19T10:51:04.607Z,21.8285
2023-05-19T10:52:06.303Z,21.8415
2023-05-19T10:53:08.036Z,21.8352
2023-05-19T10:54:10.992Z,21.8481
2023-05-19T10:55:11.504Z,21.8358
2023-05-19T10:56:13.235Z,21.8246
2023-05-19T10:57:14.919Z,21.8376
2023-05-19T10:58:16.656Z,21.8331
2023-05-19T10:59:18.376Z,21.8323
2023-05-19T11:00:20.123Z,21.8106
2023-05-19T11:01:21.866Z,21.8180
2023-05-19T11:02:23.640Z,21.8181
2023-05-19T11:03:25.262Z,21.7951
2023-05-19T11:04:27.163Z,21.8165
2023-05-19T11:05:28.729Z,21.8342
2023-05-19T11:06:30.486Z,21.8171
2023-05-19T11:07:32.203Z,21.7873
2023-05-19T11:08:33.926Z,21.7894
2023-05-19T11:09:40.275Z,21.7995
2023-05-19T11:12:38.933Z,22.0260
2023-05-19T11:13:40.575Z,21.8628
2023-05-19T11:14:42.276Z,21.8579
2023-05-19T11:15:44.081Z,21.8408
2023-05-19T11:16:46.723Z,21.8202
2023-05-19T11:17:47.526Z,21.8205
2023-05-19T11:18:49.253Z,21.8126
2023-05-19T11:19:50.928Z,21.8132
2023-05-19T11:20:52.757Z,21.8033
2023-05-19T11:21:54.401Z,21.8185
2023-05-19T11:22:56.192Z,21.8477
2023-05-19T11:23:57.963Z,21.8556
2023-05-19T11:24:59.565Z,21.8517
2023-05-19T11:26:01.293Z,21.8308
2023-05-19T11:27:03.133Z,21.8308
2023-05-19T11:28:04.779Z,21.8436
2023-05-19T11:29:06.474Z,21.8478
2023-05-19T11:30:08.254Z,21.8567
2023-05-19T11:31:09.953Z,21.8674
2023-05-19T11:32:11.755Z,21.8692
2023-05-19T11:33:13.483Z,21.8797
2023-05-19T11:34:15.112Z,21.8672
2023-05-19T11:35:16.842Z,21.8319
2023-05-19T11:36:18.612Z,21.8204
2023-05-19T11:37:20.302Z,21.8365
2023-05-19T11:38:22.130Z,21.8656
2023-05-19T11:39:23.782Z,21.8773
2023-05-19T11:40:25.520Z,21.8773
2023-05-19T11:41:27.243Z,21.8818
2023-05-19T11:42:28.966Z,21.8930
2023-05-19T11:43:30.712Z,21.9050
2023-05-19T11:44:32.522Z,21.8953
2023-05-19T11:45:34.416Z,21.8824
2023-05-19T11:46:35.969Z,21.8706
2023-05-19T11:47:50.852Z,21.8513
2023-05-19T11:48:39.368Z,21.8646
2023-05-19T11:49:41.053Z,21.8864
2023-05-19T11:50:42.856Z,21.8739
2023-05-19T11:51:44.500Z,21.8615
2023-05-19T11:52:46.252Z,21.8531
2023-05-19T11:53:47.980Z,21.8622
2023-05-19T11:54:49.716Z,21.8362
2023-05-19T11:55:52.024Z,21.8335
2023-05-19T11:56:53.258Z,21.8504
2023-05-19T11:58:02.768Z,21.8603
2023-05-19T11:58:56.647Z,21.8751
2023-05-19T11:59:58.376Z,21.8965
2023-05-19T12:01:00.121Z,21.9075
2023-05-19T12:02:01.808Z,21.9181
2023-05-19T12:03:03.674Z,21.9198
2023-05-19T12:04:05.413Z,21.8892
2023-05-19T12:05:07.057Z,21.8956
2023-05-19T12:06:08.755Z,21.9108
2023-05-19T12:07:10.470Z,21.9001
2023-05-19T12:08:12.277Z,21.8999
2023-05-19T12:09:14.028Z,21.9107
2023-05-19T12:10:15.642Z,21.9377
2023-05-19T12:11:18.216Z,21.9551
2023-05-19T12:14:16.080Z,22.1119
2023-05-19T12:15:17.704Z,21.9295
2023-05-19T12:16:19.455Z,21.8904
2023-05-19T12:17:21.271Z,21.8769
2023-05-19T12:18:22.917Z,21.8847
2023-05-19T12:19:24.693Z,21.8920
2023-05-19T12:20:26.372Z,21.9040
2023-05-19T12:21:34.011Z,21.9140
2023-05-19T12:24:31.372Z,22.0417
2023-05-19T12:25:33.186Z,21.8793
2023-05-19T12:26:34.706Z,21.8937
2023-05-19T12:27:36.513Z,21.9055
2023-05-19T12:28:38.167Z,21.8909
2023-05-19T12:29:39.884Z,21.8572
2023-05-19T12:30:41.638Z,21.8322
2023-05-19T12:31:43.431Z,21.8260
2023-05-19T12:32:45.225Z,21.8502
2023-05-19T12:33:46.830Z,21.8584